sensor_id;sensor_type;location;lat;lon;timestamp;noise_LAeq;noise_LA_min;noise_LA_max;noise_LA01;noise_LA95
72276;Laerm;61204;49.980;8.358;2023-04-03T00:00:07;44.42;35.31;56.26;;
72276;Laerm;61204;49.980;8.358;2023-04-03T00:02:32;40.75;35.44;48.87;;
72276;Laerm;61204;49.980;8.358;2023-04-03T00:04:58;41.29;34.67;49.08;;
72276;Laerm;61204;49.980;8.358;2023-04-03T00:07:23;40.45;34.21;51.12;;
72276;Laerm;61204;49.980;8.358;2023-04-03T00:09:49;42.14;35.15;50.66;;
72276;Laerm;61204;49.980;8.358;2023-04-03T00:12:15;41.35;34.35;50.93;;
72276;Laerm;61204;49.980;8.358;2023-04-03T00:14:41;40.82;35.11;47.11;;
72276;Laerm;61204;49.980;8.358;2023-04-03T00:17:06;41.08;36.88;47.62;;
72276;Laerm;61204;49.980;8.358;2023-04-03T00:19:32;41.00;35.92;51.82;;
72276;Laerm;61204;49.980;8.358;2023-04-03T00:22:00;39.74;36.02;44.50;;
72276;Laerm;61204;49.980;8.358;2023-04-03T00:24:25;45.85;34.87;59.27;;
72276;Laerm;61204;49.980;8.358;2023-04-03T00:26:51;38.66;34.48;45.17;;
72276;Laerm;61204;49.980;8.358;2023-04-03T00:29:18;40.67;35.07;48.22;;
72276;Laerm;61204;49.980;8.358;2023-04-03T00:31:44;40.94;35.47;49.54;;
72276;Laerm;61204;49.980;8.358;2023-04-03T00:34:10;43.60;37.88;49.26;;
72276;Laerm;61204;49.980;8.358;2023-04-03T00:36:35;41.94;37.80;46.99;;
72276;Laerm;61204;49.980;8.358;2023-04-03T00:39:01;41.08;36.46;47.27;;
72276;Laerm;61204;49.980;8.358;2023-04-03T00:41:26;40.53;36.68;47.84;;
72276;Laerm;61204;49.980;8.358;2023-04-03T00:43:52;41.80;36.01;49.95;;
72276;Laerm;61204;49.980;8.358;2023-04-03T00:46:17;49.42;37.31;73.14;;
72276;Laerm;61204;49.980;8.358;2023-04-03T00:48:48;43.08;36.26;51.86;;
72276;Laerm;61204;49.980;8.358;2023-04-03T00:51:22;45.61;37.66;56.34;;
72276;Laerm;61204;49.980;8.358;2023-04-03T00:53:51;44.13;37.69;53.25;;
72276;Laerm;61204;49.980;8.358;2023-04-03T00:56:23;42.34;36.74;51.19;;
72276;Laerm;61204;49.980;8.358;2023-04-03T00:58:58;42.97;36.59;49.37;;
72276;Laerm;61204;49.980;8.358;2023-04-03T01:01:28;41.59;34.73;51.63;;
72276;Laerm;61204;49.980;8.358;2023-04-03T01:04:00;41.50;35.95;51.40;;
72276;Laerm;61204;49.980;8.358;2023-04-03T01:06:32;39.24;35.37;45.85;;
72276;Laerm;61204;49.980;8.358;2023-04-03T01:08:59;40.93;34.97;55.25;;
72276;Laerm;61204;49.980;8.358;2023-04-03T01:11:33;42.53;36.27;48.45;;
72276;Laerm;61204;49.980;8.358;2023-04-03T01:13:58;43.93;39.14;49.40;;
72276;Laerm;61204;49.980;8.358;2023-04-03T01:16:24;46.23;39.80;59.40;;
72276;Laerm;61204;49.980;8.358;2023-04-03T01:18:49;43.35;38.17;56.08;;
72276;Laerm;61204;49.980;8.358;2023-04-03T01:24:32;48.09;37.38;60.46;;
72276;Laerm;61204;49.980;8.358;2023-04-03T01:27:07;42.62;35.99;61.42;;
72276;Laerm;61204;49.980;8.358;2023-04-03T01:29:34;45.24;39.11;55.45;;
72276;Laerm;61204;49.980;8.358;2023-04-03T01:32:02;42.97;36.32;51.98;;
72276;Laerm;61204;49.980;8.358;2023-04-03T01:34:29;42.49;36.56;55.78;;
72276;Laerm;61204;49.980;8.358;2023-04-03T01:36:55;44.10;38.97;52.12;;
72276;Laerm;61204;49.980;8.358;2023-04-03T01:39:21;44.29;36.66;53.98;;
72276;Laerm;61204;49.980;8.358;2023-04-03T01:41:47;42.99;36.98;62.32;;
72276;Laerm;61204;49.980;8.358;2023-04-03T01:44:13;43.73;36.80;55.78;;
72276;Laerm;61204;49.980;8.358;2023-04-03T01:46:39;41.37;35.35;50.98;;
72276;Laerm;61204;49.980;8.358;2023-04-03T01:49:05;42.12;36.12;47.30;;
72276;Laerm;61204;49.980;8.358;2023-04-03T01:51:30;53.78;35.91;71.86;;
72276;Laerm;61204;49.980;8.358;2023-04-03T01:53:56;42.84;36.75;52.12;;
72276;Laerm;61204;49.980;8.358;2023-04-03T01:56:22;42.91;37.43;50.64;;
72276;Laerm;61204;49.980;8.358;2023-04-03T01:58:47;43.41;37.73;51.57;;
72276;Laerm;61204;49.980;8.358;2023-04-03T02:01:13;40.66;35.87;50.36;;
72276;Laerm;61204;49.980;8.358;2023-04-03T02:03:38;43.55;37.99;53.07;;
72276;Laerm;61204;49.980;8.358;2023-04-03T02:06:04;42.73;34.61;64.24;;
72276;Laerm;61204;49.980;8.358;2023-04-03T02:08:30;44.61;39.06;53.22;;
72276;Laerm;61204;49.980;8.358;2023-04-03T02:10:55;44.32;38.15;53.52;;
72276;Laerm;61204;49.980;8.358;2023-04-03T02:13:21;43.66;38.88;52.54;;
72276;Laerm;61204;49.980;8.358;2023-04-03T02:15:47;42.14;36.97;49.99;;
72276;Laerm;61204;49.980;8.358;2023-04-03T02:18:13;43.01;36.44;54.57;;
72276;Laerm;61204;49.980;8.358;2023-04-03T02:20:39;48.38;37.23;63.83;;
72276;Laerm;61204;49.980;8.358;2023-04-03T02:23:04;42.61;37.87;51.60;;
72276;Laerm;61204;49.980;8.358;2023-04-03T02:25:32;46.13;41.36;52.52;;
72276;Laerm;61204;49.980;8.358;2023-04-03T02:27:58;45.19;41.11;52.36;;
72276;Laerm;61204;49.980;8.358;2023-04-03T02:30:24;44.42;39.11;49.93;;
72276;Laerm;61204;49.980;8.358;2023-04-03T02:32:52;46.51;39.88;53.51;;
72276;Laerm;61204;49.980;8.358;2023-04-03T02:35:18;46.27;38.83;56.18;;
72276;Laerm;61204;49.980;8.358;2023-04-03T02:37:43;46.03;39.87;54.39;;
72276;Laerm;61204;49.980;8.358;2023-04-03T02:40:09;48.09;41.00;58.47;;
72276;Laerm;61204;49.980;8.358;2023-04-03T02:42:37;44.08;38.78;50.41;;
72276;Laerm;61204;49.980;8.358;2023-04-03T02:45:03;46.63;40.58;56.67;;
72276;Laerm;61204;49.980;8.358;2023-04-03T02:47:31;49.93;39.68;60.98;;
72276;Laerm;61204;49.980;8.358;2023-04-03T02:49:59;47.35;41.62;62.11;;
72276;Laerm;61204;49.980;8.358;2023-04-03T02:52:25;46.31;41.80;52.04;;
72276;Laerm;61204;49.980;8.358;2023-04-03T02:54:50;49.96;40.69;68.99;;
72276;Laerm;61204;49.980;8.358;2023-04-03T02:57:15;45.08;39.36;58.79;;
72276;Laerm;61204;49.980;8.358;2023-04-03T02:59:41;53.93;40.12;66.49;;
72276;Laerm;61204;49.980;8.358;2023-04-03T03:02:08;59.42;41.76;77.89;;
72276;Laerm;61204;49.980;8.358;2023-04-03T03:04:34;47.89;41.53;57.50;;
72276;Laerm;61204;49.980;8.358;2023-04-03T03:07:00;46.97;40.70;55.88;;
72276;Laerm;61204;49.980;8.358;2023-04-03T03:09:28;47.76;42.75;57.22;;
72276;Laerm;61204;49.980;8.358;2023-04-03T03:11:55;58.56;42.87;70.22;;
72276;Laerm;61204;49.980;8.358;2023-04-03T03:14:23;56.23;45.28;67.35;;
72276;Laerm;61204;49.980;8.358;2023-04-03T03:16:49;52.18;43.63;62.89;;
72276;Laerm;61204;49.980;8.358;2023-04-03T03:19:15;51.73;42.63;62.67;;
72276;Laerm;61204;49.980;8.358;2023-04-03T03:21:41;57.84;45.37;68.60;;
72276;Laerm;61204;49.980;8.358;2023-04-03T03:24:09;48.36;43.64;54.73;;
72276;Laerm;61204;49.980;8.358;2023-04-03T03:26:34;60.92;44.80;73.43;;
72276;Laerm;61204;49.980;8.358;2023-04-03T03:29:02;49.77;44.03;61.45;;
72276;Laerm;61204;49.980;8.358;2023-04-03T03:31:28;49.81;43.10;56.19;;
72276;Laerm;61204;49.980;8.358;2023-04-03T03:33:53;48.97;43.29;55.83;;
72276;Laerm;61204;49.980;8.358;2023-04-03T03:36:23;52.41;42.65;64.42;;
72276;Laerm;61204;49.980;8.358;2023-04-03T03:38:48;51.37;43.19;61.03;;
72276;Laerm;61204;49.980;8.358;2023-04-03T03:41:14;53.47;42.99;73.32;;
72276;Laerm;61204;49.980;8.358;2023-04-03T03:43:39;57.29;45.31;70.37;;
72276;Laerm;61204;49.980;8.358;2023-04-03T03:46:05;60.43;46.36;71.48;;
72276;Laerm;61204;49.980;8.358;2023-04-03T03:48:33;59.35;45.66;69.73;;
72276;Laerm;61204;49.980;8.358;2023-04-03T03:51:01;56.32;44.74;68.26;;
72276;Laerm;61204;49.980;8.358;2023-04-03T03:53:26;47.66;41.76;57.80;;
72276;Laerm;61204;49.980;8.358;2023-04-03T03:55:52;47.65;40.48;57.10;;
72276;Laerm;61204;49.980;8.358;2023-04-03T03:58:17;49.23;42.03;61.09;;
72276;Laerm;61204;49.980;8.358;2023-04-03T04:00:45;51.13;43.38;65.34;;
72276;Laerm;61204;49.980;8.358;2023-04-03T04:03:10;53.83;43.74;67.54;;
72276;Laerm;61204;49.980;8.358;2023-04-03T04:05:36;57.03;44.56;67.52;;
72276;Laerm;61204;49.980;8.358;2023-04-03T04:08:01;54.57;44.76;67.59;;
72276;Laerm;61204;49.980;8.358;2023-04-03T04:10:27;55.12;45.39;66.36;;
72276;Laerm;61204;49.980;8.358;2023-04-03T04:12:52;54.53;44.13;64.96;;
72276;Laerm;61204;49.980;8.358;2023-04-03T04:15:18;55.09;44.73;67.20;;
72276;Laerm;61204;49.980;8.358;2023-04-03T04:17:44;55.89;44.76;72.91;;
72276;Laerm;61204;49.980;8.358;2023-04-03T04:20:10;57.27;46.49;68.89;;
72276;Laerm;61204;49.980;8.358;2023-04-03T04:22:36;58.80;46.40;70.21;;
72276;Laerm;61204;49.980;8.358;2023-04-03T04:25:01;52.62;44.36;66.77;;
72276;Laerm;61204;49.980;8.358;2023-04-03T04:27:27;55.97;45.83;67.93;;
72276;Laerm;61204;49.980;8.358;2023-04-03T04:29:55;54.03;44.70;71.30;;
72276;Laerm;61204;49.980;8.358;2023-04-03T04:32:20;53.69;45.83;70.51;;
72276;Laerm;61204;49.980;8.358;2023-04-03T04:34:46;52.60;45.00;66.59;;
72276;Laerm;61204;49.980;8.358;2023-04-03T04:37:11;55.66;44.89;70.29;;
72276;Laerm;61204;49.980;8.358;2023-04-03T04:39:36;55.00;45.00;74.74;;
72276;Laerm;61204;49.980;8.358;2023-04-03T04:42:02;62.36;46.19;75.46;;
72276;Laerm;61204;49.980;8.358;2023-04-03T04:44:28;56.17;45.00;69.36;;
72276;Laerm;61204;49.980;8.358;2023-04-03T04:46:55;59.04;44.11;69.99;;
72276;Laerm;61204;49.980;8.358;2023-04-03T04:49:21;55.27;42.82;67.87;;
72276;Laerm;61204;49.980;8.358;2023-04-03T04:51:46;55.75;45.28;65.99;;
72276;Laerm;61204;49.980;8.358;2023-04-03T04:54:12;54.19;45.62;64.32;;
72276;Laerm;61204;49.980;8.358;2023-04-03T04:56:37;54.51;45.37;65.90;;
72276;Laerm;61204;49.980;8.358;2023-04-03T04:59:03;55.12;45.14;68.49;;
72276;Laerm;61204;49.980;8.358;2023-04-03T05:01:28;58.18;46.12;71.03;;
72276;Laerm;61204;49.980;8.358;2023-04-03T05:03:56;59.24;47.36;71.86;;
72276;Laerm;61204;49.980;8.358;2023-04-03T05:06:24;61.63;46.96;79.08;;
72276;Laerm;61204;49.980;8.358;2023-04-03T05:08:50;58.70;46.82;70.00;;
72276;Laerm;61204;49.980;8.358;2023-04-03T05:11:15;57.97;46.79;68.96;;
72276;Laerm;61204;49.980;8.358;2023-04-03T05:13:43;59.27;47.25;76.85;;
72276;Laerm;61204;49.980;8.358;2023-04-03T05:16:11;59.29;45.93;77.67;;
72276;Laerm;61204;49.980;8.358;2023-04-03T05:18:36;61.28;46.59;80.09;;
72276;Laerm;61204;49.980;8.358;2023-04-03T05:21:02;56.08;46.21;69.99;;
72276;Laerm;61204;49.980;8.358;2023-04-03T05:23:27;50.12;45.83;66.40;;
72276;Laerm;61204;49.980;8.358;2023-04-03T05:25:53;55.69;45.59;67.60;;
72276;Laerm;61204;49.980;8.358;2023-04-03T05:28:18;56.29;46.73;69.07;;
72276;Laerm;61204;49.980;8.358;2023-04-03T05:30:56;56.91;45.99;70.81;;
72276;Laerm;61204;49.980;8.358;2023-04-03T05:33:23;58.22;47.36;75.50;;
72276;Laerm;61204;49.980;8.358;2023-04-03T05:35:50;62.14;46.61;74.39;;
72276;Laerm;61204;49.980;8.358;2023-04-03T05:38:16;59.64;46.76;72.14;;
72276;Laerm;61204;49.980;8.358;2023-04-03T05:40:41;57.84;46.32;73.99;;
72276;Laerm;61204;49.980;8.358;2023-04-03T05:43:12;62.51;47.95;74.24;;
72276;Laerm;61204;49.980;8.358;2023-04-03T05:45:37;56.95;46.32;76.95;;
72276;Laerm;61204;49.980;8.358;2023-04-03T05:48:03;59.04;47.23;71.95;;
72276;Laerm;61204;49.980;8.358;2023-04-03T05:50:28;57.33;46.14;72.33;;
72276;Laerm;61204;49.980;8.358;2023-04-03T05:52:58;56.30;47.01;73.84;;
72276;Laerm;61204;49.980;8.358;2023-04-03T05:55:26;56.43;46.20;69.71;;
72276;Laerm;61204;49.980;8.358;2023-04-03T05:57:52;58.66;46.52;76.39;;
72276;Laerm;61204;49.980;8.358;2023-04-03T06:00:18;60.81;47.79;74.49;;
72276;Laerm;61204;49.980;8.358;2023-04-03T06:02:43;57.57;47.54;74.25;;
72276;Laerm;61204;49.980;8.358;2023-04-03T06:05:09;57.32;46.00;72.03;;
72276;Laerm;61204;49.980;8.358;2023-04-03T06:07:37;57.15;47.44;73.08;;
72276;Laerm;61204;49.980;8.358;2023-04-03T06:10:03;60.50;48.83;79.08;;
72276;Laerm;61204;49.980;8.358;2023-04-03T06:12:29;58.39;49.04;78.81;;
72276;Laerm;61204;49.980;8.358;2023-04-03T06:14:55;60.69;48.75;80.45;;
72276;Laerm;61204;49.980;8.358;2023-04-03T06:17:21;58.83;48.54;76.19;;
72276;Laerm;61204;49.980;8.358;2023-04-03T06:19:46;58.14;47.32;72.47;;
72276;Laerm;61204;49.980;8.358;2023-04-03T06:22:13;58.38;48.62;72.41;;
72276;Laerm;61204;49.980;8.358;2023-04-03T06:24:38;58.92;46.93;74.53;;
72276;Laerm;61204;49.980;8.358;2023-04-03T06:27:06;60.11;47.00;72.30;;
72276;Laerm;61204;49.980;8.358;2023-04-03T06:29:32;55.00;46.54;74.96;;
72276;Laerm;61204;49.980;8.358;2023-04-03T06:31:58;57.43;48.11;75.00;;
72276;Laerm;61204;49.980;8.358;2023-04-03T06:34:23;56.49;47.49;67.75;;
72276;Laerm;61204;49.980;8.358;2023-04-03T06:36:49;53.99;46.81;72.93;;
72276;Laerm;61204;49.980;8.358;2023-04-03T06:39:19;59.55;47.86;74.71;;
72276;Laerm;61204;49.980;8.358;2023-04-03T06:41:50;57.52;47.63;69.36;;
72276;Laerm;61204;49.980;8.358;2023-04-03T06:44:16;57.17;46.10;68.32;;
72276;Laerm;61204;49.980;8.358;2023-04-03T06:46:43;54.67;47.08;69.02;;
72276;Laerm;61204;49.980;8.358;2023-04-03T06:49:09;58.97;48.33;75.80;;
72276;Laerm;61204;49.980;8.358;2023-04-03T06:51:35;58.15;48.75;71.35;;
72276;Laerm;61204;49.980;8.358;2023-04-03T06:54:04;60.69;46.34;72.77;;
72276;Laerm;61204;49.980;8.358;2023-04-03T06:56:31;58.86;48.47;71.42;;
72276;Laerm;61204;49.980;8.358;2023-04-03T06:58:57;57.96;48.12;71.16;;
72276;Laerm;61204;49.980;8.358;2023-04-03T07:01:27;57.32;46.85;69.85;;
72276;Laerm;61204;49.980;8.358;2023-04-03T07:03:53;63.43;48.58;76.25;;
72276;Laerm;61204;49.980;8.358;2023-04-03T07:06:19;57.07;48.74;68.69;;
72276;Laerm;61204;49.980;8.358;2023-04-03T07:08:45;54.76;46.64;72.73;;
72276;Laerm;61204;49.980;8.358;2023-04-03T07:11:12;55.37;46.29;70.71;;
72276;Laerm;61204;49.980;8.358;2023-04-03T07:13:38;60.15;48.01;71.68;;
72276;Laerm;61204;49.980;8.358;2023-04-03T07:16:05;60.28;47.04;73.62;;
72276;Laerm;61204;49.980;8.358;2023-04-03T07:18:32;58.41;47.64;70.49;;
72276;Laerm;61204;49.980;8.358;2023-04-03T07:20:58;58.39;48.28;75.19;;
72276;Laerm;61204;49.980;8.358;2023-04-03T07:23:24;58.95;46.36;69.67;;
72276;Laerm;61204;49.980;8.358;2023-04-03T07:25:51;57.42;48.26;69.00;;
72276;Laerm;61204;49.980;8.358;2023-04-03T07:28:19;57.94;45.39;79.26;;
72276;Laerm;61204;49.980;8.358;2023-04-03T07:30:51;53.32;45.65;67.89;;
72276;Laerm;61204;49.980;8.358;2023-04-03T07:33:19;54.80;45.37;77.39;;
72276;Laerm;61204;49.980;8.358;2023-04-03T07:35:45;58.12;45.29;74.14;;
72276;Laerm;61204;49.980;8.358;2023-04-03T07:38:12;57.32;46.14;75.05;;
72276;Laerm;61204;49.980;8.358;2023-04-03T07:40:38;58.47;45.87;70.49;;
72276;Laerm;61204;49.980;8.358;2023-04-03T07:43:05;62.17;46.82;80.47;;
72276;Laerm;61204;49.980;8.358;2023-04-03T07:45:32;55.55;44.34;71.49;;
72276;Laerm;61204;49.980;8.358;2023-04-03T07:48:00;56.82;45.13;73.38;;
72276;Laerm;61204;49.980;8.358;2023-04-03T07:50:26;55.13;46.81;69.43;;
72276;Laerm;61204;49.980;8.358;2023-04-03T07:52:52;55.67;47.46;68.49;;
72276;Laerm;61204;49.980;8.358;2023-04-03T07:55:19;57.47;46.87;74.82;;
72276;Laerm;61204;49.980;8.358;2023-04-03T07:57:45;61.25;47.38;74.03;;
72276;Laerm;61204;49.980;8.358;2023-04-03T08:00:12;58.50;46.33;77.88;;
72276;Laerm;61204;49.980;8.358;2023-04-03T08:02:38;53.93;46.11;71.64;;
72276;Laerm;61204;49.980;8.358;2023-04-03T08:05:04;53.82;45.13;66.46;;
72276;Laerm;61204;49.980;8.358;2023-04-03T08:07:30;62.32;45.06;79.68;;
72276;Laerm;61204;49.980;8.358;2023-04-03T08:09:55;52.85;46.04;64.28;;
72276;Laerm;61204;49.980;8.358;2023-04-03T08:12:21;59.10;46.12;75.27;;
72276;Laerm;61204;49.980;8.358;2023-04-03T08:14:46;56.94;47.36;74.89;;
72276;Laerm;61204;49.980;8.358;2023-04-03T08:17:12;57.31;47.11;71.18;;
72276;Laerm;61204;49.980;8.358;2023-04-03T08:19:39;54.57;46.75;74.54;;
72276;Laerm;61204;49.980;8.358;2023-04-03T08:22:05;58.24;46.42;74.10;;
72276;Laerm;61204;49.980;8.358;2023-04-03T08:24:33;62.14;47.23;81.99;;
72276;Laerm;61204;49.980;8.358;2023-04-03T08:26:59;56.59;46.84;71.36;;
72276;Laerm;61204;49.980;8.358;2023-04-03T08:29:24;60.36;45.86;72.99;;
72276;Laerm;61204;49.980;8.358;2023-04-03T08:31:51;57.78;48.68;76.50;;
72276;Laerm;61204;49.980;8.358;2023-04-03T08:34:17;61.53;47.83;75.86;;
72276;Laerm;61204;49.980;8.358;2023-04-03T08:36:45;55.64;46.15;68.50;;
72276;Laerm;61204;49.980;8.358;2023-04-03T08:39:11;62.12;47.26;75.75;;
72276;Laerm;61204;49.980;8.358;2023-04-03T08:41:42;61.49;45.91;74.87;;
72276;Laerm;61204;49.980;8.358;2023-04-03T08:49:46;54.14;43.94;73.17;;
72276;Laerm;61204;49.980;8.358;2023-04-03T08:52:19;52.60;45.25;70.81;;
72276;Laerm;61204;49.980;8.358;2023-04-03T08:54:56;60.71;45.17;77.18;;
72276;Laerm;61204;49.980;8.358;2023-04-03T08:57:39;56.76;45.04;76.46;;
72276;Laerm;61204;49.980;8.358;2023-04-03T09:00:20;58.16;44.20;81.98;;
72276;Laerm;61204;49.980;8.358;2023-04-03T09:02:52;61.27;46.27;75.51;;
72276;Laerm;61204;49.980;8.358;2023-04-03T09:05:47;54.74;44.81;73.84;;
72276;Laerm;61204;49.980;8.358;2023-04-03T09:08:30;56.81;44.23;77.80;;
72276;Laerm;61204;49.980;8.358;2023-04-03T09:14:33;59.50;44.42;86.06;;
72276;Laerm;61204;49.980;8.358;2023-04-03T09:23:33;58.25;45.35;73.11;;
72276;Laerm;61204;49.980;8.358;2023-04-03T09:26:14;62.18;44.90;78.65;;
72276;Laerm;61204;49.980;8.358;2023-04-03T09:28:42;60.29;45.92;75.66;;
72276;Laerm;61204;49.980;8.358;2023-04-03T09:31:24;52.86;45.71;74.19;;
72276;Laerm;61204;49.980;8.358;2023-04-03T09:33:59;51.41;44.20;69.62;;
72276;Laerm;61204;49.980;8.358;2023-04-03T09:36:50;50.64;44.46;66.04;;
72276;Laerm;61204;49.980;8.358;2023-04-03T09:39:32;56.52;46.62;74.36;;
72276;Laerm;61204;49.980;8.358;2023-04-03T09:42:23;56.14;45.98;70.93;;
72276;Laerm;61204;49.980;8.358;2023-04-03T09:45:00;60.05;44.41;78.64;;
72276;Laerm;61204;49.980;8.358;2023-04-03T09:47:30;60.25;47.14;73.83;;
72276;Laerm;61204;49.980;8.358;2023-04-03T09:50:21;55.52;46.10;74.07;;
72276;Laerm;61204;49.980;8.358;2023-04-03T09:52:51;51.95;45.67;68.80;;
72276;Laerm;61204;49.980;8.358;2023-04-03T09:55:25;55.16;45.76;68.15;;
72276;Laerm;61204;49.980;8.358;2023-04-03T09:58:04;55.34;45.51;76.96;;
72276;Laerm;61204;49.980;8.358;2023-04-03T10:00:37;58.75;45.24;81.85;;
72276;Laerm;61204;49.980;8.358;2023-04-03T10:03:28;59.82;46.84;80.05;;
72276;Laerm;61204;49.980;8.358;2023-04-03T10:05:55;57.41;47.12;72.29;;
72276;Laerm;61204;49.980;8.358;2023-04-03T10:08:30;56.43;45.27;78.05;;
72276;Laerm;61204;49.980;8.358;2023-04-03T10:11:17;59.05;45.62;75.99;;
72276;Laerm;61204;49.980;8.358;2023-04-03T10:13:58;55.66;47.42;74.08;;
72276;Laerm;61204;49.980;8.358;2023-04-03T10:16:52;58.63;46.14;75.15;;
72276;Laerm;61204;49.980;8.358;2023-04-03T10:19:32;57.58;44.11;75.42;;
72276;Laerm;61204;49.980;8.358;2023-04-03T10:26:05;58.02;44.55;74.23;;
72276;Laerm;61204;49.980;8.358;2023-04-03T10:31:23;59.62;46.08;81.27;;
72276;Laerm;61204;49.980;8.358;2023-04-03T10:37:01;57.16;45.06;75.24;;
72276;Laerm;61204;49.980;8.358;2023-04-03T10:39:53;58.98;44.22;80.31;;
72276;Laerm;61204;49.980;8.358;2023-04-03T10:42:56;50.11;42.88;64.25;;
72276;Laerm;61204;49.980;8.358;2023-04-03T10:48:17;58.26;46.05;77.55;;
72276;Laerm;61204;49.980;8.358;2023-04-03T10:51:12;57.85;46.27;74.26;;
72276;Laerm;61204;49.980;8.358;2023-04-03T10:57:00;56.27;42.28;84.16;;
72276;Laerm;61204;49.980;8.358;2023-04-03T10:59:36;57.82;43.31;78.88;;
72276;Laerm;61204;49.980;8.358;2023-04-03T11:02:39;56.57;45.78;73.62;;
72276;Laerm;61204;49.980;8.358;2023-04-03T11:08:10;50.69;43.04;72.80;;
72276;Laerm;61204;49.980;8.358;2023-04-03T11:10:44;48.74;42.75;69.62;;
72276;Laerm;61204;49.980;8.358;2023-04-03T11:13:32;48.99;42.14;70.89;;
72276;Laerm;61204;49.980;8.358;2023-04-03T11:15:58;48.69;42.06;66.30;;
72276;Laerm;61204;49.980;8.358;2023-04-03T11:18:41;55.08;44.22;73.29;;
72276;Laerm;61204;49.980;8.358;2023-04-03T11:21:20;53.73;43.74;75.85;;
72276;Laerm;61204;49.980;8.358;2023-04-03T11:23:48;52.61;45.70;68.68;;
72276;Laerm;61204;49.980;8.358;2023-04-03T11:26:18;52.15;45.42;67.52;;
72276;Laerm;61204;49.980;8.358;2023-04-03T11:28:44;53.26;45.20;73.73;;
72276;Laerm;61204;49.980;8.358;2023-04-03T11:31:48;62.20;46.03;80.10;;
72276;Laerm;61204;49.980;8.358;2023-04-03T11:34:37;54.40;44.93;72.46;;
72276;Laerm;61204;49.980;8.358;2023-04-03T11:37:44;57.99;45.17;77.78;;
72276;Laerm;61204;49.980;8.358;2023-04-03T11:42:48;53.53;43.99;68.58;;
72276;Laerm;61204;49.980;8.358;2023-04-03T11:45:27;55.36;44.22;77.22;;
72276;Laerm;61204;49.980;8.358;2023-04-03T12:13:35;56.12;43.84;73.00;;
72276;Laerm;61204;49.980;8.358;2023-04-03T12:16:03;57.79;43.44;79.36;;
72276;Laerm;61204;49.980;8.358;2023-04-03T12:29:44;57.22;43.88;74.56;;
72276;Laerm;61204;49.980;8.358;2023-04-03T12:35:43;55.35;43.94;76.33;;
72276;Laerm;61204;49.980;8.358;2023-04-03T12:38:37;55.18;42.85;74.75;;
72276;Laerm;61204;49.980;8.358;2023-04-03T12:41:38;57.25;42.16;82.76;;
72276;Laerm;61204;49.980;8.358;2023-04-03T12:44:47;51.83;41.36;72.56;;
72276;Laerm;61204;49.980;8.358;2023-04-03T12:47:36;51.24;43.17;69.53;;
72276;Laerm;61204;49.980;8.358;2023-04-03T12:50:17;55.24;43.24;76.47;;
72276;Laerm;61204;49.980;8.358;2023-04-03T12:52:52;52.99;42.60;69.87;;
72276;Laerm;61204;49.980;8.358;2023-04-03T12:55:21;51.20;42.18;72.02;;
72276;Laerm;61204;49.980;8.358;2023-04-03T12:57:47;56.67;43.79;76.41;;
72276;Laerm;61204;49.980;8.358;2023-04-03T13:02:54;56.52;47.95;73.88;;
72276;Laerm;61204;49.980;8.358;2023-04-03T13:05:22;51.30;45.03;63.55;;
72276;Laerm;61204;49.980;8.358;2023-04-03T13:08:00;57.29;44.87;77.14;;
72276;Laerm;61204;49.980;8.358;2023-04-03T13:10:27;55.88;47.64;73.47;;
72276;Laerm;61204;49.980;8.358;2023-04-03T13:13:06;60.76;46.50;74.92;;
72276;Laerm;61204;49.980;8.358;2023-04-03T13:15:47;56.52;45.17;69.90;;
72276;Laerm;61204;49.980;8.358;2023-04-03T13:18:25;57.57;45.39;69.50;;
72276;Laerm;61204;49.980;8.358;2023-04-03T13:20:52;60.28;43.01;80.90;;
72276;Laerm;61204;49.980;8.358;2023-04-03T13:23:20;57.35;43.31;76.80;;
72276;Laerm;61204;49.980;8.358;2023-04-03T13:25:47;58.22;44.01;71.04;;
72276;Laerm;61204;49.980;8.358;2023-04-03T13:28:21;57.18;47.21;72.08;;
72276;Laerm;61204;49.980;8.358;2023-04-03T13:31:14;55.65;44.21;71.41;;
72276;Laerm;61204;49.980;8.358;2023-04-03T13:41:47;56.88;43.40;76.95;;
72276;Laerm;61204;49.980;8.358;2023-04-03T13:49:43;57.34;42.84;74.78;;
72276;Laerm;61204;49.980;8.358;2023-04-03T13:52:31;58.99;45.80;74.14;;
72276;Laerm;61204;49.980;8.358;2023-04-03T13:55:22;55.56;43.65;73.26;;
72276;Laerm;61204;49.980;8.358;2023-04-03T14:00:28;58.64;43.51;76.54;;
72276;Laerm;61204;49.980;8.358;2023-04-03T14:02:56;57.58;45.13;73.75;;
72276;Laerm;61204;49.980;8.358;2023-04-03T14:05:24;53.75;43.04;67.42;;
72276;Laerm;61204;49.980;8.358;2023-04-03T14:07:51;50.40;43.82;73.61;;
72276;Laerm;61204;49.980;8.358;2023-04-03T14:10:17;51.70;45.12;66.14;;
72276;Laerm;61204;49.980;8.358;2023-04-03T14:12:43;61.19;44.77;78.40;;
72276;Laerm;61204;49.980;8.358;2023-04-03T14:15:23;54.40;42.83;78.52;;
72276;Laerm;61204;49.980;8.358;2023-04-03T14:17:50;58.65;43.30;72.15;;
72276;Laerm;61204;49.980;8.358;2023-04-03T14:20:24;57.61;44.80;74.08;;
72276;Laerm;61204;49.980;8.358;2023-04-03T14:22:51;56.06;44.08;73.18;;
72276;Laerm;61204;49.980;8.358;2023-04-03T14:25:18;54.27;44.60;67.94;;
72276;Laerm;61204;49.980;8.358;2023-04-03T14:27:48;53.16;45.77;64.04;;
72276;Laerm;61204;49.980;8.358;2023-04-03T14:30:25;58.29;44.76;71.48;;
72276;Laerm;61204;49.980;8.358;2023-04-03T14:32:51;59.03;45.22;74.62;;
72276;Laerm;61204;49.980;8.358;2023-04-03T14:35:18;56.09;45.61;74.13;;
72276;Laerm;61204;49.980;8.358;2023-04-03T14:37:46;58.09;47.21;69.39;;
72276;Laerm;61204;49.980;8.358;2023-04-03T14:40:17;56.67;45.58;77.44;;
72276;Laerm;61204;49.980;8.358;2023-04-03T14:42:43;56.32;42.71;73.13;;
72276;Laerm;61204;49.980;8.358;2023-04-03T14:45:13;56.39;42.93;73.86;;
72276;Laerm;61204;49.980;8.358;2023-04-03T14:47:46;51.46;44.76;68.07;;
72276;Laerm;61204;49.980;8.358;2023-04-03T14:50:21;56.76;44.50;72.03;;
72276;Laerm;61204;49.980;8.358;2023-04-03T14:52:50;52.42;43.64;71.61;;
72276;Laerm;61204;49.980;8.358;2023-04-03T14:55:19;57.38;45.71;76.26;;
72276;Laerm;61204;49.980;8.358;2023-04-03T14:57:45;56.72;45.73;74.62;;
72276;Laerm;61204;49.980;8.358;2023-04-03T15:00:20;56.74;45.13;72.76;;
72276;Laerm;61204;49.980;8.358;2023-04-03T15:02:47;60.93;42.49;75.66;;
72276;Laerm;61204;49.980;8.358;2023-04-03T15:05:13;54.32;42.15;68.02;;
72276;Laerm;61204;49.980;8.358;2023-04-03T15:07:44;56.23;42.05;77.74;;
72276;Laerm;61204;49.980;8.358;2023-04-03T15:12:44;54.81;43.20;68.64;;
72276;Laerm;61204;49.980;8.358;2023-04-03T15:15:11;50.32;43.27;66.82;;
72276;Laerm;61204;49.980;8.358;2023-04-03T15:17:39;56.19;41.24;79.11;;
72276;Laerm;61204;49.980;8.358;2023-04-03T15:20:31;54.16;40.64;67.23;;
72276;Laerm;61204;49.980;8.358;2023-04-03T15:22:59;57.79;43.95;70.07;;
72276;Laerm;61204;49.980;8.358;2023-04-03T15:25:30;54.39;43.44;66.44;;
72276;Laerm;61204;49.980;8.358;2023-04-03T15:27:57;59.39;47.18;73.73;;
72276;Laerm;61204;49.980;8.358;2023-04-03T15:30:23;57.52;44.04;68.81;;
72276;Laerm;61204;49.980;8.358;2023-04-03T15:32:49;60.51;46.25;75.20;;
72276;Laerm;61204;49.980;8.358;2023-04-03T15:35:15;59.16;41.94;76.31;;
72276;Laerm;61204;49.980;8.358;2023-04-03T15:37:41;48.87;40.92;66.60;;
72276;Laerm;61204;49.980;8.358;2023-04-03T15:40:07;55.79;42.20;76.57;;